METAR Data
IDs: Format: Raw Decoded Include TAF

Data at: 0228 UTC 25 Feb 2021

ESOK 250220Z AUTO 22010KT 8000 BR FEW004/// OVC006/// 06/06 Q1013